createdAt,value
2022-09-05T00:00:05.536Z,16.00
2022-09-05T00:02:57.293Z,16.00
2022-09-05T00:05:54.042Z,16.10
2022-09-05T00:09:00.698Z,16.10
2022-09-05T00:11:46.682Z,16.00
2022-09-05T00:14:34.302Z,15.90
2022-09-05T00:18:11.975Z,15.90
2022-09-05T00:24:27.563Z,15.90
2022-09-05T00:24:28.940Z,15.90
2022-09-05T00:26:19.233Z,16.00
2022-09-05T00:29:02.746Z,16.00
2022-09-05T00:31:53.815Z,16.10
2022-09-05T00:34:47.295Z,16.10
2022-09-05T00:37:33.787Z,16.20
2022-09-05T00:40:29.747Z,16.10
2022-09-05T00:43:02.115Z,16.10
2022-09-05T00:45:47.795Z,16.10
2022-09-05T00:48:48.427Z,16.00
2022-09-05T00:51:35.226Z,15.90
2022-09-05T00:54:02.046Z,15.90
2022-09-05T00:57:19.545Z,15.90
2022-09-05T01:00:02.873Z,16.00
2022-09-05T01:02:49.830Z,16.00
2022-09-05T01:05:33.701Z,15.90
2022-09-05T01:08:34.231Z,15.90
2022-09-05T01:11:12.750Z,15.90
2022-09-05T01:14:20.010Z,15.80
2022-09-05T01:17:23.982Z,15.80
2022-09-05T01:20:04.867Z,15.90
2022-09-05T01:23:11.115Z,15.80
2022-09-05T01:26:08.241Z,15.80
2022-09-05T01:29:16.445Z,15.80
2022-09-05T01:32:03.661Z,15.80
2022-09-05T01:34:56.624Z,15.70
2022-09-05T01:37:33.995Z,15.60
2022-09-05T01:40:23.640Z,15.60
2022-09-05T01:43:27.858Z,15.60
2022-09-05T01:46:03.303Z,15.60
2022-09-05T01:48:50.845Z,15.60
2022-09-05T01:51:51.223Z,15.60
2022-09-05T01:54:35.327Z,15.60
2022-09-05T01:57:14.051Z,15.60
2022-09-05T01:59:46.240Z,15.60
2022-09-05T02:02:36.122Z,15.60
2022-09-05T02:05:48.723Z,15.40
2022-09-05T02:08:23.866Z,15.30
2022-09-05T02:11:10.490Z,15.20
2022-09-05T02:13:37.370Z,15.10
2022-09-05T02:16:23.057Z,15.00
2022-09-05T02:19:01.514Z,14.90
2022-09-05T02:21:36.726Z,14.80
2022-09-05T02:24:31.206Z,14.80
2022-09-05T02:27:08.997Z,14.70
2022-09-05T02:29:53.181Z,14.70
2022-09-05T02:32:32.015Z,14.70
2022-09-05T02:35:29.990Z,14.60
2022-09-05T02:41:29.063Z,14.60
2022-09-05T02:45:17.414Z,14.60
2022-09-05T02:45:24.153Z,14.60
2022-09-05T02:47:38.855Z,14.70
2022-09-05T02:52:50.534Z,14.80
2022-09-05T02:57:41.751Z,14.80
2022-09-05T02:57:44.514Z,14.80
2022-09-05T02:59:50.589Z,14.80
2022-09-05T03:02:49.381Z,14.80
2022-09-05T03:05:37.454Z,14.90
2022-09-05T03:08:22.817Z,14.90
2022-09-05T03:11:27.122Z,14.80
2022-09-05T03:14:33.971Z,14.80
2022-09-05T03:17:20.586Z,14.70
2022-09-05T03:19:53.006Z,14.70
2022-09-05T03:22:56.578Z,14.60
2022-09-05T03:25:32.579Z,14.50
2022-09-05T03:28:24.665Z,14.40
2022-09-05T03:30:59.215Z,14.40
2022-09-05T03:33:54.254Z,14.40
2022-09-05T03:36:42.025Z,14.30
2022-09-05T03:39:32.128Z,14.30
2022-09-05T03:42:31.160Z,14.30
2022-09-05T03:45:36.946Z,14.30
2022-09-05T03:48:27.739Z,14.40
2022-09-05T03:57:08.083Z,14.40
2022-09-05T03:57:18.322Z,14.50
2022-09-05T03:57:42.540Z,14.50
2022-09-05T04:00:33.592Z,14.50
2022-09-05T04:08:07.378Z,14.40
2022-09-05T04:08:17.616Z,14.30
2022-09-05T04:08:56.292Z,14.20
2022-09-05T04:11:37.533Z,14.20
2022-09-05T04:14:21.283Z,14.20
2022-09-05T04:16:57.266Z,14.20
2022-09-05T04:19:52.306Z,14.20
2022-09-05T04:22:56.600Z,14.20
2022-09-05T04:25:41.480Z,14.20
2022-09-05T04:28:38.037Z,14.30
2022-09-05T04:31:22.085Z,14.30
2022-09-05T04:34:16.969Z,14.30
2022-09-05T04:36:45.126Z,14.10
2022-09-05T04:39:17.822Z,14.00
2022-09-05T04:41:52.666Z,13.90
2022-09-05T04:44:30.549Z,13.90
2022-09-05T04:47:08.710Z,13.60
2022-09-05T04:50:00.285Z,13.50
2022-09-05T04:52:42.451Z,13.40
2022-09-05T04:55:28.379Z,13.50
2022-09-05T04:58:27.515Z,13.40
2022-09-05T05:06:04.558Z,13.40
2022-09-05T05:06:16.668Z,13.40
2022-09-05T05:07:37.591Z,13.50
2022-09-05T05:12:23.913Z,13.60
2022-09-05T05:17:56.421Z,13.70
2022-09-05T05:18:11.816Z,13.80
2022-09-05T05:19:03.553Z,13.80
2022-09-05T05:21:32.865Z,14.00
2022-09-05T05:24:13.981Z,14.10
2022-09-05T05:27:00.092Z,14.30
2022-09-05T05:29:44.548Z,14.50
2022-09-05T05:32:34.601Z,14.70
2022-09-05T05:35:12.957Z,14.80
2022-09-05T05:37:51.669Z,15.10
2022-09-05T05:40:28.655Z,15.30
2022-09-05T05:43:20.745Z,15.50
2022-09-05T05:48:18.067Z,15.80
2022-09-05T05:51:34.600Z,16.00
2022-09-05T05:54:48.221Z,16.20
2022-09-05T05:57:38.382Z,16.50
2022-09-05T06:00:08.910Z,16.60
2022-09-05T06:03:26.002Z,16.80
2022-09-05T06:06:03.471Z,17.10
2022-09-05T06:11:13.946Z,17.30
2022-09-05T06:14:55.595Z,17.40
2022-09-05T06:15:13.186Z,17.70
2022-09-05T06:18:07.237Z,18.00
2022-09-05T06:22:11.030Z,18.20
2022-09-05T06:24:33.905Z,18.10
2022-09-05T06:27:03.309Z,18.20
2022-09-05T06:29:58.007Z,18.30
2022-09-05T06:32:27.414Z,18.50
2022-09-05T06:35:18.761Z,18.50
2022-09-05T06:38:16.635Z,18.30
2022-09-05T06:40:53.497Z,18.20
2022-09-05T06:43:44.829Z,18.50
2022-09-05T06:46:54.704Z,18.70
2022-09-05T06:49:55.063Z,18.90
2022-09-05T06:52:37.155Z,19.10
2022-09-05T06:55:25.581Z,19.30
2022-09-05T06:58:04.235Z,19.40
2022-09-05T07:00:45.988Z,19.50
2022-09-05T07:03:23.118Z,19.30
2022-09-05T07:05:58.999Z,19.40
2022-09-05T07:08:55.814Z,19.40
2022-09-05T07:11:53.232Z,19.50
2022-09-05T07:14:24.637Z,19.60
2022-09-05T07:17:09.319Z,19.70
2022-09-05T07:19:38.738Z,19.60
2022-09-05T07:22:25.787Z,19.60
2022-09-05T07:24:56.636Z,19.70
2022-09-05T07:27:41.977Z,19.90
2022-09-05T07:30:25.971Z,19.90
2022-09-05T07:32:55.986Z,19.90
2022-09-05T07:35:31.180Z,19.90
2022-09-05T07:38:41.869Z,20.00
2022-09-05T07:41:26.768Z,20.40
2022-09-05T07:44:24.893Z,20.50
2022-09-05T07:47:07.057Z,20.50
2022-09-05T07:49:39.916Z,20.50
2022-09-05T07:56:51.464Z,20.50
2022-09-05T07:57:13.099Z,20.50
2022-09-05T07:58:28.660Z,20.70
2022-09-05T08:00:58.316Z,21.10
2022-09-05T08:03:29.124Z,21.40
2022-09-05T08:06:00.526Z,21.50
2022-09-05T08:08:33.612Z,21.60
2022-09-05T08:11:23.914Z,21.80
2022-09-05T08:14:44.906Z,22.10
2022-09-05T08:16:59.396Z,22.30
2022-09-05T08:19:54.668Z,22.40
2022-09-05T08:22:37.029Z,22.60
2022-09-05T08:25:17.896Z,23.00
2022-09-05T08:28:19.452Z,23.10
2022-09-05T08:30:54.835Z,22.80
2022-09-05T08:33:25.281Z,23.10
2022-09-05T08:36:00.815Z,23.20
2022-09-05T08:38:38.741Z,23.00
2022-09-05T08:41:10.633Z,23.00
2022-09-05T08:46:37.534Z,23.50
2022-09-05T08:46:50.127Z,23.30
2022-09-05T08:49:50.654Z,23.00
2022-09-05T08:52:30.314Z,23.00
2022-09-05T08:55:07.251Z,23.20
2022-09-05T08:57:46.482Z,23.60
2022-09-05T09:00:24.509Z,24.10
2022-09-05T09:03:15.647Z,24.40
2022-09-05T09:06:12.723Z,24.40
2022-09-05T09:08:55.349Z,24.50
2022-09-05T09:11:56.949Z,24.50
2022-09-05T09:14:58.901Z,24.40
2022-09-05T09:17:31.488Z,24.80
2022-09-05T09:20:04.529Z,24.90
2022-09-05T09:22:53.445Z,25.20
2022-09-05T09:25:42.058Z,24.90
2022-09-05T09:28:49.672Z,25.20
2022-09-05T09:31:26.855Z,25.60
2022-09-05T09:34:14.101Z,26.00
2022-09-05T09:36:55.017Z,26.20
2022-09-05T09:39:38.283Z,26.30
2022-09-05T09:42:32.398Z,26.30
2022-09-05T09:45:28.276Z,26.50
2022-09-05T09:48:10.751Z,26.20
2022-09-05T09:50:59.024Z,26.20
2022-09-05T09:53:41.230Z,26.00
2022-09-05T09:56:35.682Z,25.90
2022-09-05T09:59:22.610Z,25.80
2022-09-05T10:02:31.177Z,25.70
2022-09-05T10:10:34.842Z,25.60
2022-09-05T10:10:50.760Z,25.50
2022-09-05T10:11:54.200Z,25.90
2022-09-05T10:14:51.303Z,25.70
2022-09-05T10:17:33.628Z,25.90
2022-09-05T10:20:36.156Z,25.90
2022-09-05T10:23:05.868Z,26.10
2022-09-05T10:26:06.433Z,26.30
2022-09-05T10:28:36.165Z,26.20
2022-09-05T10:33:10.500Z,26.40
2022-09-05T10:35:22.834Z,26.60
2022-09-05T10:37:18.886Z,26.60
2022-09-05T10:39:53.698Z,26.90
2022-09-05T10:43:00.423Z,26.70
2022-09-05T10:45:42.531Z,27.00
2022-09-05T10:48:37.279Z,27.10
2022-09-05T10:51:17.233Z,27.00
2022-09-05T10:54:13.327Z,27.20
2022-09-05T10:56:47.738Z,27.20
2022-09-05T11:02:20.635Z,27.40
2022-09-05T11:02:33.529Z,27.20
2022-09-05T11:05:23.508Z,27.00
2022-09-05T11:08:03.194Z,27.20
2022-09-05T11:10:52.355Z,27.20
2022-09-05T11:13:46.385Z,27.60
2022-09-05T11:16:46.909Z,27.90
2022-09-05T11:19:42.931Z,28.00
2022-09-05T11:22:22.429Z,27.90
2022-09-05T11:24:57.298Z,28.20
2022-09-05T11:27:35.206Z,28.50
2022-09-05T11:39:49.151Z,28.80
2022-09-05T11:39:59.643Z,29.10
2022-09-05T11:40:09.704Z,29.10
2022-09-05T11:42:15.266Z,28.70
2022-09-05T11:44:56.755Z,28.70
2022-09-05T11:47:45.394Z,28.80
2022-09-05T11:53:03.823Z,28.90
2022-09-05T11:55:36.668Z,28.70
2022-09-05T12:01:43.380Z,29.20
2022-09-05T12:05:49.483Z,29.20
2022-09-05T12:08:28.831Z,29.60
2022-09-05T12:11:28.719Z,29.20
2022-09-05T12:14:32.750Z,28.80
2022-09-05T12:17:35.525Z,29.30
2022-09-05T12:23:06.211Z,29.70
2022-09-05T12:27:35.835Z,29.00
2022-09-05T12:29:26.463Z,28.90
2022-09-05T12:33:24.363Z,29.10
2022-09-05T12:36:06.728Z,29.60
2022-09-05T12:40:55.594Z,29.50
2022-09-05T12:42:09.877Z,29.30
2022-09-05T12:44:41.030Z,29.70
2022-09-05T12:46:57.687Z,29.80
2022-09-05T12:49:40.204Z,29.40
2022-09-05T12:52:42.667Z,29.20
2022-09-05T12:55:17.622Z,29.40
2022-09-05T13:02:13.325Z,29.80
2022-09-05T13:03:07.058Z,29.80
2022-09-05T13:03:32.292Z,29.60
2022-09-05T13:06:25.687Z,29.80
2022-09-05T13:09:00.632Z,30.00
2022-09-05T13:14:46.661Z,29.70
2022-09-05T13:15:07.605Z,30.00
2022-09-05T13:17:35.136Z,29.40
2022-09-05T13:20:18.346Z,29.80
2022-09-05T13:22:50.520Z,30.20
2022-09-05T13:25:27.008Z,30.40
2022-09-05T13:28:01.707Z,30.70
2022-09-05T13:37:13.461Z,30.70
2022-09-05T13:38:05.049Z,31.00
2022-09-05T13:38:15.189Z,31.00
2022-09-05T13:39:28.360Z,31.00
2022-09-05T13:42:03.451Z,31.10
2022-09-05T13:44:36.226Z,30.90
2022-09-05T13:47:29.356Z,30.40
2022-09-05T13:50:22.309Z,30.30
2022-09-05T13:52:56.948Z,30.00
2022-09-05T13:55:45.987Z,29.70
2022-09-05T13:58:29.068Z,29.80
2022-09-05T14:01:05.558Z,29.60
2022-09-05T14:03:56.862Z,29.90
2022-09-05T14:06:48.841Z,29.70
2022-09-05T14:09:40.049Z,29.90
2022-09-05T14:12:32.049Z,29.20
2022-09-05T14:15:25.123Z,28.90
2022-09-05T14:18:01.202Z,28.80
2022-09-05T14:20:52.834Z,28.90
2022-09-05T14:23:25.022Z,29.20
2022-09-05T14:26:00.443Z,29.10
2022-09-05T14:28:33.370Z,28.90
2022-09-05T14:35:33.318Z,28.80
2022-09-05T14:37:51.825Z,29.20
2022-09-05T14:37:52.108Z,29.10
2022-09-05T14:40:29.762Z,29.10
2022-09-05T14:43:27.123Z,29.20
2022-09-05T14:46:35.091Z,28.70
2022-09-05T14:49:34.289Z,28.90
2022-09-05T14:52:20.346Z,29.20
2022-09-05T15:02:42.655Z,29.10
2022-09-05T15:02:51.878Z,29.30
2022-09-05T15:06:33.335Z,29.40
2022-09-05T15:10:51.086Z,29.30
2022-09-05T15:12:27.572Z,29.20
2022-09-05T15:14:38.417Z,29.10
2022-09-05T15:17:06.061Z,28.90
2022-09-05T15:20:07.909Z,28.50
2022-09-05T15:22:41.857Z,28.40
2022-09-05T15:25:19.340Z,28.30
2022-09-05T15:27:47.304Z,28.30
2022-09-05T15:30:17.004Z,27.90
2022-09-05T15:32:49.766Z,27.60
2022-09-05T15:35:43.410Z,27.50
2022-09-05T15:38:50.353Z,27.40
2022-09-05T15:41:29.556Z,27.40
2022-09-05T15:44:09.653Z,27.20
2022-09-05T15:46:46.281Z,26.90
2022-09-05T15:49:24.251Z,26.80
2022-09-05T15:51:53.701Z,26.80
2022-09-05T15:54:37.947Z,26.80
2022-09-05T15:57:09.060Z,26.70
2022-09-05T15:59:49.686Z,26.70
2022-09-05T16:02:26.612Z,26.70
2022-09-05T16:10:35.103Z,26.70
2022-09-05T16:10:36.098Z,26.50
2022-09-05T16:14:24.284Z,26.40
2022-09-05T16:23:18.714Z,26.20
2022-09-05T16:23:24.621Z,26.10
2022-09-05T16:23:27.194Z,26.00
2022-09-05T16:25:47.038Z,26.00
2022-09-05T16:28:21.229Z,25.80
2022-09-05T16:30:49.209Z,25.70
2022-09-05T16:33:18.651Z,25.60
2022-09-05T16:35:59.336Z,25.50
2022-09-05T16:38:49.486Z,25.40
2022-09-05T16:41:19.959Z,25.30
2022-09-05T16:44:04.147Z,25.20
2022-09-05T16:46:36.948Z,25.00
2022-09-05T16:49:12.452Z,25.00
2022-09-05T16:51:46.818Z,24.90
2022-09-05T16:54:28.685Z,24.90
2022-09-05T16:57:32.407Z,24.80
2022-09-05T17:00:00.015Z,24.80
2022-09-05T17:02:53.632Z,24.70
2022-09-05T17:05:46.155Z,24.70
2022-09-05T17:08:22.109Z,24.60
2022-09-05T17:10:57.950Z,24.40
2022-09-05T17:14:16.896Z,24.30
2022-09-05T17:16:49.169Z,24.20
2022-09-05T17:19:32.031Z,24.20
2022-09-05T17:23:17.372Z,24.10
2022-09-05T17:29:33.767Z,23.90
2022-09-05T17:29:50.494Z,24.00
2022-09-05T17:33:44.668Z,23.70
2022-09-05T17:36:22.536Z,23.60
2022-09-05T17:39:25.151Z,23.40
2022-09-05T17:42:42.601Z,23.30
2022-09-05T17:45:16.811Z,23.10
2022-09-05T17:47:52.422Z,23.10
2022-09-05T17:50:25.188Z,23.00
2022-09-05T17:52:59.015Z,22.90
2022-09-05T17:55:37.983Z,22.80
2022-09-05T17:58:22.329Z,22.80
2022-09-05T18:00:52.375Z,22.60
2022-09-05T18:03:44.972Z,22.50
2022-09-05T18:06:20.350Z,22.40
2022-09-05T18:08:48.041Z,22.30
2022-09-05T18:11:26.131Z,22.30
2022-09-05T18:17:36.288Z,22.10
2022-09-05T18:19:57.649Z,22.10
2022-09-05T18:22:30.593Z,22.00
2022-09-05T18:28:22.482Z,21.90
2022-09-05T18:30:49.961Z,21.80
2022-09-05T18:33:54.279Z,21.80
2022-09-05T18:36:25.929Z,21.80
2022-09-05T18:39:37.000Z,21.80
2022-09-05T18:42:33.325Z,21.70
2022-09-05T18:45:14.453Z,21.60
2022-09-05T18:47:53.323Z,21.50
2022-09-05T18:50:36.955Z,21.50
2022-09-05T18:53:13.185Z,21.40
2022-09-05T18:56:20.513Z,21.30
2022-09-05T18:58:53.401Z,21.30
2022-09-05T19:01:40.303Z,21.20
2022-09-05T19:07:47.883Z,21.10
2022-09-05T19:10:35.755Z,21.10
2022-09-05T19:13:24.133Z,21.10
2022-09-05T19:16:42.513Z,21.10
2022-09-05T19:19:11.453Z,21.10
2022-09-05T19:21:48.136Z,21.00
2022-09-05T19:24:45.041Z,21.00
2022-09-05T19:28:35.084Z,20.90
2022-09-05T19:36:55.343Z,20.80
2022-09-05T19:36:57.562Z,20.90
2022-09-05T19:37:10.375Z,20.80
2022-09-05T19:38:24.075Z,20.80
2022-09-05T19:47:49.002Z,20.70
2022-09-05T19:47:50.279Z,20.70
2022-09-05T19:47:50.920Z,20.80
2022-09-05T19:49:58.058Z,20.60
2022-09-05T19:52:25.071Z,20.60
2022-09-05T19:54:55.094Z,20.50
2022-09-05T19:57:21.939Z,20.50
2022-09-05T19:59:54.598Z,20.40
2022-09-05T20:02:32.607Z,20.40
2022-09-05T20:05:02.987Z,20.30
2022-09-05T20:07:35.815Z,20.20
2022-09-05T20:10:04.612Z,20.10
2022-09-05T20:12:34.664Z,20.00
2022-09-05T20:15:20.928Z,20.00
2022-09-05T20:17:48.591Z,20.00
2022-09-05T20:20:25.673Z,19.90
2022-09-05T20:22:57.673Z,19.80
2022-09-05T20:25:43.379Z,19.80
2022-09-05T20:28:19.560Z,19.80
2022-09-05T20:30:55.138Z,19.70
2022-09-05T20:33:51.785Z,19.70
2022-09-05T20:43:11.498Z,19.70
2022-09-05T20:43:19.152Z,19.70
2022-09-05T20:43:24.587Z,19.70
2022-09-05T20:45:45.824Z,19.70
2022-09-05T20:54:10.689Z,19.60
2022-09-05T20:54:21.138Z,19.60
2022-09-05T20:54:31.892Z,19.60
2022-09-05T20:57:11.010Z,19.50
2022-09-05T20:59:41.506Z,19.50
2022-09-05T21:02:27.951Z,19.40
2022-09-05T21:05:20.915Z,19.30
2022-09-05T21:07:59.229Z,19.30
2022-09-05T21:10:55.597Z,19.20
2022-09-05T21:13:29.519Z,19.10
2022-09-05T21:15:56.641Z,19.10
2022-09-05T21:18:33.312Z,19.10
2022-09-05T21:21:14.611Z,19.20
2022-09-05T21:24:12.018Z,19.10
2022-09-05T21:26:48.907Z,19.00
2022-09-05T21:29:23.018Z,19.00
2022-09-05T21:31:57.421Z,18.90
2022-09-05T21:34:32.704Z,18.80
2022-09-05T21:37:07.397Z,18.80
2022-09-05T21:39:38.318Z,18.80
2022-09-05T21:42:39.125Z,18.70
2022-09-05T21:47:47.016Z,18.70
2022-09-05T21:47:52.503Z,18.70
2022-09-05T21:50:31.468Z,18.70
2022-09-05T21:53:53.747Z,18.70
2022-09-05T21:59:19.091Z,18.60
2022-09-05T21:59:24.725Z,18.70
2022-09-05T22:01:48.653Z,18.80
2022-09-05T22:04:15.260Z,18.80
2022-09-05T22:06:48.556Z,18.80
2022-09-05T22:09:17.733Z,18.80
2022-09-05T22:11:50.130Z,18.70
2022-09-05T22:14:18.676Z,18.50
2022-09-05T22:16:47.518Z,18.50
2022-09-05T22:19:22.580Z,18.60
2022-09-05T22:21:53.362Z,18.50
2022-09-05T22:24:21.203Z,18.60
2022-09-05T22:27:12.738Z,18.60
2022-09-05T22:29:40.036Z,18.50
2022-09-05T22:32:07.573Z,18.60
2022-09-05T22:34:34.281Z,18.60
2022-09-05T22:37:01.060Z,18.40
2022-09-05T22:39:36.860Z,18.30
2022-09-05T22:42:09.939Z,18.20
2022-09-05T22:44:39.211Z,18.20
2022-09-05T22:47:10.196Z,18.10
2022-09-05T22:49:37.684Z,18.10
2022-09-05T22:52:09.128Z,18.00
2022-09-05T22:54:36.225Z,18.00
2022-09-05T22:57:04.174Z,17.90
2022-09-05T22:59:31.411Z,17.90
2022-09-05T23:01:58.516Z,17.80
2022-09-05T23:04:25.931Z,17.80
2022-09-05T23:06:53.119Z,17.80
2022-09-05T23:09:20.219Z,17.80
2022-09-05T23:11:46.910Z,17.80
2022-09-05T23:14:13.621Z,17.80
2022-09-05T23:16:40.316Z,17.60
2022-09-05T23:19:07.047Z,17.70
2022-09-05T23:21:34.235Z,17.70
2022-09-05T23:24:00.940Z,17.80
2022-09-05T23:26:27.832Z,17.70
2022-09-05T23:28:54.540Z,17.80
2022-09-05T23:31:21.422Z,17.80
2022-09-05T23:33:48.275Z,17.80
2022-09-05T23:36:15.123Z,17.90
2022-09-05T23:38:44.905Z,17.80
2022-09-05T23:41:13.926Z,17.90
2022-09-05T23:43:40.732Z,17.80
2022-09-05T23:46:07.809Z,17.80
2022-09-05T23:48:34.548Z,17.80
2022-09-05T23:51:09.241Z,17.80
2022-09-05T23:53:36.316Z,17.80
2022-09-05T23:56:04.655Z,17.80
2022-09-05T23:58:32.405Z,17.80
